createdAt,value
2022-11-29T00:01:36.283Z,-0.99
2022-11-29T00:04:04.732Z,-1.00
2022-11-29T00:06:33.403Z,-1.01
2022-11-29T00:09:06.408Z,-0.97
2022-11-29T00:11:54.939Z,-1.00
2022-11-29T00:14:25.194Z,-0.97
2022-11-29T00:16:55.928Z,-1.03
2022-11-29T00:19:23.731Z,-0.96
2022-11-29T00:21:51.296Z,-0.90
2022-11-29T00:24:19.320Z,-0.96
2022-11-29T00:26:46.980Z,-0.92
2022-11-29T00:29:14.583Z,-0.88
2022-11-29T00:31:42.737Z,-1.00
2022-11-29T00:34:11.141Z,-1.05
2022-11-29T00:36:39.128Z,-0.97
2022-11-29T00:39:07.567Z,-0.88
2022-11-29T00:41:35.124Z,-0.82
2022-11-29T00:44:02.548Z,-0.77
2022-11-29T00:46:30.303Z,-0.75
2022-11-29T00:48:57.761Z,-0.70
2022-11-29T00:51:25.221Z,-0.68
2022-11-29T00:53:53.003Z,-0.63
2022-11-29T00:56:20.536Z,-0.58
2022-11-29T00:58:49.313Z,-0.60
2022-11-29T01:01:17.254Z,-0.51
2022-11-29T01:03:45.007Z,-0.61
2022-11-29T01:06:15.634Z,-0.51
2022-11-29T01:08:45.743Z,-0.49
2022-11-29T01:11:25.122Z,-0.46
2022-11-29T01:13:58.795Z,-0.44
2022-11-29T01:16:27.183Z,-0.54
2022-11-29T01:18:55.275Z,-0.46
2022-11-29T01:21:24.472Z,-0.48
2022-11-29T01:23:53.459Z,-0.70
2022-11-29T01:26:26.774Z,-0.52
2022-11-29T01:28:55.783Z,-0.59
2022-11-29T01:31:25.934Z,-0.56
2022-11-29T01:33:55.499Z,-0.50
2022-11-29T01:36:23.820Z,-0.43
2022-11-29T01:38:51.805Z,-0.61
2022-11-29T01:41:26.985Z,-0.53
2022-11-29T01:44:01.351Z,-0.46
2022-11-29T01:46:31.479Z,-0.39
2022-11-29T01:49:04.133Z,-0.38
2022-11-29T01:51:33.582Z,-0.44
2022-11-29T01:54:01.525Z,-0.50
2022-11-29T01:56:30.559Z,-0.42
2022-11-29T01:58:58.209Z,-0.38
2022-11-29T02:01:26.386Z,-0.39
2022-11-29T02:03:54.391Z,-0.38
2022-11-29T02:06:22.333Z,-0.37
2022-11-29T02:08:49.929Z,-0.30
2022-11-29T02:11:52.934Z,-0.27
2022-11-29T02:14:37.192Z,-0.43
2022-11-29T02:17:38.554Z,-0.38
2022-11-29T02:20:20.448Z,-0.31
2022-11-29T02:23:13.339Z,-0.33
2022-11-29T02:25:59.530Z,-0.29
2022-11-29T02:28:48.899Z,-0.31
2022-11-29T02:31:41.754Z,-0.25
2022-11-29T02:34:51.022Z,-0.40
2022-11-29T02:37:48.060Z,-0.30
2022-11-29T02:40:40.102Z,-0.32
2022-11-29T02:43:30.104Z,-0.35
2022-11-29T02:46:12.977Z,-0.36
2022-11-29T02:49:07.136Z,-0.33
2022-11-29T02:52:00.429Z,-0.22
2022-11-29T02:54:36.181Z,-0.19
2022-11-29T02:57:29.556Z,-0.22
2022-11-29T03:00:05.600Z,-0.19
2022-11-29T03:02:38.777Z,-0.16
2022-11-29T03:05:13.998Z,-0.15
2022-11-29T03:07:57.775Z,-0.12
2022-11-29T03:11:02.195Z,-0.27
2022-11-29T03:13:46.227Z,-0.22
2022-11-29T03:16:29.818Z,-0.18
2022-11-29T03:19:15.382Z,-0.21
2022-11-29T03:21:52.951Z,-0.14
2022-11-29T03:24:59.295Z,-0.16
2022-11-29T03:27:39.037Z,-0.19
2022-11-29T03:30:10.328Z,-0.19
2022-11-29T03:33:05.201Z,-0.23
2022-11-29T03:35:55.661Z,-0.30
2022-11-29T03:38:40.137Z,-0.23
2022-11-29T03:41:13.526Z,-0.25
2022-11-29T03:43:55.251Z,-0.19
2022-11-29T03:46:47.633Z,-0.19
2022-11-29T03:49:23.932Z,-0.19
2022-11-29T03:52:16.399Z,-0.10
2022-11-29T03:54:57.399Z,-0.09
2022-11-29T03:57:53.581Z,-0.02
2022-11-29T04:00:21.798Z,0.02
2022-11-29T04:03:13.337Z,-0.05
2022-11-29T04:05:55.327Z,-0.07
2022-11-29T04:08:41.957Z,-0.08
2022-11-29T04:11:37.628Z,-0.11
2022-11-29T04:14:14.276Z,-0.04
2022-11-29T04:17:19.407Z,-0.01
2022-11-29T04:20:03.661Z,-0.05
2022-11-29T04:23:00.099Z,0.02
2022-11-29T04:25:34.700Z,0.05
2022-11-29T04:28:21.089Z,-0.04
2022-11-29T04:31:04.788Z,0.03
2022-11-29T04:33:53.725Z,0.06
2022-11-29T04:36:59.199Z,0.07
2022-11-29T04:39:33.352Z,0.05
2022-11-29T04:42:07.582Z,0.09
2022-11-29T04:45:19.780Z,0.01
2022-11-29T04:48:15.696Z,0.08
2022-11-29T04:50:59.991Z,0.08
2022-11-29T04:53:42.810Z,0.04
2022-11-29T04:56:16.310Z,0.07
2022-11-29T04:58:52.269Z,0.01
2022-11-29T05:01:35.555Z,0.03
2022-11-29T05:04:31.390Z,0.09
2022-11-29T05:07:05.651Z,0.13
2022-11-29T05:10:02.581Z,0.20
2022-11-29T05:12:33.284Z,0.24
2022-11-29T05:15:39.306Z,0.18
2022-11-29T05:18:17.161Z,0.21
2022-11-29T05:21:09.062Z,0.18
2022-11-29T05:23:55.045Z,0.05
2022-11-29T05:26:47.737Z,0.08
2022-11-29T05:29:37.434Z,0.00
2022-11-29T05:32:14.263Z,0.10
2022-11-29T05:34:48.517Z,0.17
2022-11-29T05:37:44.108Z,0.17
2022-11-29T05:40:30.907Z,0.20
2022-11-29T05:43:16.890Z,0.25
2022-11-29T05:45:54.988Z,0.29
2022-11-29T05:49:00.988Z,0.23
2022-11-29T05:51:42.605Z,0.19
2022-11-29T05:54:32.730Z,0.24
2022-11-29T05:57:14.303Z,0.24
2022-11-29T05:59:42.917Z,0.23
2022-11-29T06:02:23.202Z,0.27
2022-11-29T06:04:57.295Z,0.29
2022-11-29T06:07:27.720Z,0.29
2022-11-29T06:10:23.767Z,0.24
2022-11-29T06:13:09.605Z,0.30
2022-11-29T06:15:56.810Z,0.29
2022-11-29T06:18:52.783Z,0.27
2022-11-29T06:21:33.450Z,0.26
2022-11-29T06:24:25.578Z,0.27
2022-11-29T06:27:18.467Z,0.08
2022-11-29T06:29:59.735Z,0.05
2022-11-29T06:32:34.132Z,0.23
2022-11-29T06:35:28.276Z,0.21
2022-11-29T06:37:58.635Z,0.31
2022-11-29T06:40:26.542Z,0.27
2022-11-29T06:42:54.211Z,0.35
2022-11-29T06:45:22.638Z,0.37
2022-11-29T06:48:00.407Z,0.42
2022-11-29T06:50:54.084Z,0.42
2022-11-29T06:57:37.526Z,0.52
2022-11-29T07:00:21.671Z,0.54
2022-11-29T07:03:32.621Z,0.51
2022-11-29T07:06:08.390Z,0.62
2022-11-29T07:08:36.087Z,0.28
2022-11-29T07:11:05.508Z,0.29
2022-11-29T07:13:33.458Z,0.12
2022-11-29T07:16:07.949Z,0.36
2022-11-29T07:18:44.346Z,0.45
2022-11-29T07:21:19.821Z,0.52
2022-11-29T07:23:59.672Z,0.51
2022-11-29T07:26:37.102Z,0.41
2022-11-29T07:29:13.981Z,0.40
2022-11-29T07:31:41.952Z,0.21
2022-11-29T07:34:21.603Z,-0.01
2022-11-29T07:37:05.363Z,0.31
2022-11-29T07:39:45.376Z,0.46
2022-11-29T07:42:18.099Z,0.52
2022-11-29T07:44:54.786Z,0.41
2022-11-29T07:47:22.304Z,0.44
2022-11-29T07:50:00.177Z,0.32
2022-11-29T07:52:31.283Z,0.51
2022-11-29T07:54:59.190Z,0.39
2022-11-29T07:57:26.732Z,0.58
2022-11-29T07:59:54.314Z,0.60
2022-11-29T08:02:30.050Z,0.66
2022-11-29T08:04:58.376Z,0.69
2022-11-29T08:07:26.045Z,0.70
2022-11-29T08:09:54.038Z,0.62
2022-11-29T08:12:22.296Z,0.51
2022-11-29T08:14:49.788Z,0.44
2022-11-29T08:17:18.705Z,0.31
2022-11-29T08:19:46.785Z,0.45
2022-11-29T08:22:15.438Z,0.48
2022-11-29T08:24:46.153Z,0.61
2022-11-29T08:27:14.253Z,0.34
2022-11-29T08:29:42.030Z,0.10
2022-11-29T08:32:12.810Z,0.40
2022-11-29T08:34:41.078Z,0.52
2022-11-29T08:37:08.679Z,0.58
2022-11-29T08:39:36.323Z,0.70
2022-11-29T08:42:04.220Z,0.54
2022-11-29T08:44:31.737Z,0.78
2022-11-29T08:47:28.423Z,0.75
2022-11-29T08:50:02.307Z,0.63
2022-11-29T08:52:48.965Z,0.61
2022-11-29T08:55:18.935Z,0.85
2022-11-29T08:57:47.717Z,0.77
2022-11-29T09:00:15.955Z,0.79
2022-11-29T09:02:43.984Z,0.73
2022-11-29T09:05:17.286Z,0.96
2022-11-29T09:07:46.478Z,1.03
2022-11-29T09:10:13.996Z,1.13
2022-11-29T09:12:41.532Z,1.17
2022-11-29T09:15:10.231Z,0.83
2022-11-29T09:17:37.790Z,1.04
2022-11-29T09:20:06.322Z,1.09
2022-11-29T09:22:34.404Z,1.05
2022-11-29T09:25:12.406Z,1.04
2022-11-29T09:27:42.020Z,1.16
2022-11-29T09:30:19.177Z,1.30
2022-11-29T09:32:50.772Z,1.27
2022-11-29T09:35:35.221Z,1.29
2022-11-29T09:38:13.192Z,1.47
2022-11-29T09:40:48.983Z,1.52
2022-11-29T09:43:37.014Z,1.56
2022-11-29T09:46:22.509Z,1.66
2022-11-29T09:48:50.478Z,1.74
2022-11-29T09:51:26.545Z,1.79
2022-11-29T09:54:06.343Z,1.61
2022-11-29T09:56:38.958Z,1.66
2022-11-29T09:59:28.357Z,1.56
2022-11-29T10:02:04.975Z,1.69
2022-11-29T10:04:41.452Z,1.84
2022-11-29T10:07:18.583Z,2.11
2022-11-29T10:09:59.292Z,2.64
2022-11-29T10:12:39.677Z,3.07
2022-11-29T10:15:32.159Z,2.69
2022-11-29T10:18:31.726Z,2.13
2022-11-29T10:21:05.482Z,2.04
2022-11-29T10:23:38.668Z,2.56
2022-11-29T10:26:11.787Z,2.54
2022-11-29T10:28:49.910Z,2.53
2022-11-29T10:31:22.519Z,2.49
2022-11-29T10:33:55.144Z,2.01
2022-11-29T10:36:42.015Z,1.73
2022-11-29T10:39:26.468Z,1.84
2022-11-29T10:41:57.493Z,1.66
2022-11-29T10:44:25.566Z,1.85
2022-11-29T10:46:54.528Z,1.97
2022-11-29T10:49:28.884Z,1.86
2022-11-29T10:52:01.256Z,2.12
2022-11-29T10:54:54.234Z,2.17
2022-11-29T10:57:26.142Z,2.36
2022-11-29T11:00:04.869Z,2.41
2022-11-29T11:02:33.789Z,2.48
2022-11-29T11:05:12.372Z,2.33
2022-11-29T11:07:40.123Z,2.52
2022-11-29T11:14:19.696Z,2.59
2022-11-29T11:16:47.528Z,1.78
2022-11-29T11:19:30.186Z,2.15
2022-11-29T11:21:59.901Z,2.06
2022-11-29T11:24:33.574Z,2.15
2022-11-29T11:27:01.675Z,2.30
2022-11-29T11:29:38.821Z,2.20
2022-11-29T11:32:16.511Z,2.33
2022-11-29T11:34:58.614Z,2.40
2022-11-29T11:37:26.408Z,2.38
2022-11-29T11:39:57.166Z,2.25
2022-11-29T11:42:37.800Z,2.37
2022-11-29T11:45:27.598Z,2.47
2022-11-29T11:47:59.094Z,2.55
2022-11-29T11:50:28.315Z,2.56
2022-11-29T11:53:07.033Z,2.54
2022-11-29T11:55:38.811Z,2.51
2022-11-29T11:58:10.356Z,2.46
2022-11-29T12:01:09.921Z,2.38
2022-11-29T12:03:40.768Z,2.36
2022-11-29T12:06:37.937Z,2.33
2022-11-29T12:09:08.790Z,2.25
2022-11-29T12:11:59.539Z,2.33
2022-11-29T12:14:41.730Z,2.35
2022-11-29T12:17:23.197Z,2.27
2022-11-29T12:20:18.178Z,2.54
2022-11-29T12:23:15.616Z,2.60
2022-11-29T12:26:34.553Z,2.58
2022-11-29T12:29:01.679Z,2.70
2022-11-29T12:31:41.004Z,2.67
2022-11-29T12:34:22.049Z,2.64
2022-11-29T12:37:11.483Z,2.66
2022-11-29T12:39:57.418Z,2.69
2022-11-29T12:42:28.065Z,2.49
2022-11-29T12:45:11.591Z,2.63
2022-11-29T12:47:51.867Z,2.66
2022-11-29T12:50:45.541Z,2.61
2022-11-29T12:53:32.719Z,2.56
2022-11-29T12:56:15.302Z,2.63
2022-11-29T12:59:04.521Z,2.56
2022-11-29T13:02:18.068Z,2.13
2022-11-29T13:05:24.749Z,2.12
2022-11-29T13:08:01.518Z,2.11
2022-11-29T13:10:38.939Z,2.17
2022-11-29T13:13:36.010Z,2.04
2022-11-29T13:16:39.809Z,2.10
2022-11-29T13:19:42.402Z,2.28
2022-11-29T13:23:18.787Z,2.33
2022-11-29T13:25:57.779Z,2.51
2022-11-29T13:28:28.973Z,2.57
2022-11-29T13:31:04.330Z,2.52
2022-11-29T13:33:54.006Z,2.59
2022-11-29T13:36:47.141Z,2.41
2022-11-29T13:39:45.079Z,2.40
2022-11-29T13:42:16.121Z,2.56
2022-11-29T13:45:12.206Z,2.60
2022-11-29T13:47:54.048Z,2.62
2022-11-29T13:50:42.775Z,2.58
2022-11-29T13:53:19.804Z,2.46
2022-11-29T13:55:49.118Z,2.51
2022-11-29T13:58:29.004Z,2.22
2022-11-29T14:01:15.407Z,2.41
2022-11-29T14:03:46.490Z,2.46
2022-11-29T14:06:39.715Z,2.50
2022-11-29T14:09:22.015Z,2.48
2022-11-29T14:12:28.203Z,2.56
2022-11-29T14:15:01.962Z,2.53
2022-11-29T14:17:50.844Z,2.55
2022-11-29T14:20:25.362Z,2.38
2022-11-29T14:23:31.078Z,2.26
2022-11-29T14:25:58.973Z,2.23
2022-11-29T14:28:29.535Z,2.39
2022-11-29T14:31:01.522Z,2.33
2022-11-29T14:33:50.678Z,2.36
2022-11-29T14:36:24.119Z,2.43
2022-11-29T14:39:10.074Z,2.37
2022-11-29T14:42:16.455Z,2.26
2022-11-29T14:45:37.982Z,2.25
2022-11-29T14:48:41.866Z,2.17
2022-11-29T14:51:23.625Z,2.17
2022-11-29T14:54:06.676Z,2.27
2022-11-29T14:56:39.082Z,2.29
2022-11-29T14:59:43.706Z,2.25
2022-11-29T15:02:23.786Z,2.15
2022-11-29T15:04:54.716Z,2.21
2022-11-29T15:07:30.745Z,2.19
2022-11-29T15:10:01.807Z,2.27
2022-11-29T15:12:34.837Z,2.27
2022-11-29T15:15:22.019Z,2.27
2022-11-29T15:18:19.605Z,2.28
2022-11-29T15:21:07.518Z,2.34
2022-11-29T15:23:42.028Z,2.33
2022-11-29T15:26:20.953Z,2.32
2022-11-29T15:28:48.750Z,2.32
2022-11-29T15:31:19.544Z,2.30
2022-11-29T15:33:49.141Z,2.24
2022-11-29T15:36:21.871Z,1.93
2022-11-29T15:38:54.995Z,1.89
2022-11-29T15:41:26.704Z,2.08
2022-11-29T15:43:58.116Z,2.09
2022-11-29T15:46:31.447Z,2.14
2022-11-29T15:49:24.747Z,2.11
2022-11-29T15:52:03.416Z,2.02
2022-11-29T15:54:34.598Z,2.09
2022-11-29T15:57:26.688Z,1.89
2022-11-29T16:00:01.724Z,1.82
2022-11-29T16:02:31.776Z,1.98
2022-11-29T16:05:19.551Z,2.08
2022-11-29T16:07:50.712Z,2.04
2022-11-29T16:10:21.217Z,2.10
2022-11-29T16:12:59.615Z,1.67
2022-11-29T16:15:37.654Z,1.91
2022-11-29T16:18:19.023Z,1.73
2022-11-29T16:21:00.125Z,1.89
2022-11-29T16:23:35.187Z,1.65
2022-11-29T16:26:15.051Z,1.74
2022-11-29T16:28:44.988Z,1.31
2022-11-29T16:31:42.377Z,1.53
2022-11-29T16:34:21.535Z,1.59
2022-11-29T16:37:03.506Z,1.51
2022-11-29T16:39:36.727Z,1.62
2022-11-29T16:42:18.307Z,1.67
2022-11-29T16:44:50.246Z,1.78
2022-11-29T16:47:20.491Z,1.81
2022-11-29T16:50:03.164Z,1.83
2022-11-29T16:52:32.938Z,1.84
2022-11-29T16:55:00.685Z,1.65
2022-11-29T16:57:28.861Z,1.42
2022-11-29T16:59:56.853Z,1.64
2022-11-29T17:02:24.646Z,1.63
2022-11-29T17:04:52.498Z,1.77
2022-11-29T17:07:28.280Z,1.47
2022-11-29T17:09:57.040Z,1.64
2022-11-29T17:12:24.783Z,1.35
2022-11-29T17:14:52.344Z,1.51
2022-11-29T17:17:20.098Z,1.42
2022-11-29T17:19:48.007Z,1.63
2022-11-29T17:22:15.758Z,1.70
2022-11-29T17:24:48.087Z,1.71
2022-11-29T17:27:16.751Z,1.78
2022-11-29T17:29:44.622Z,1.83
2022-11-29T17:32:12.300Z,1.81
2022-11-29T17:34:40.095Z,1.63
2022-11-29T17:37:07.855Z,1.64
2022-11-29T17:39:35.687Z,1.57
2022-11-29T17:42:04.053Z,1.36
2022-11-29T17:44:34.006Z,1.18
2022-11-29T17:47:02.172Z,1.46
2022-11-29T17:49:30.307Z,1.46
2022-11-29T17:51:58.203Z,1.55
2022-11-29T17:54:25.741Z,1.61
2022-11-29T17:56:53.556Z,1.67
2022-11-29T17:59:21.863Z,1.69
2022-11-29T18:01:49.946Z,1.62
2022-11-29T18:04:18.174Z,1.46
2022-11-29T18:06:50.023Z,1.55
2022-11-29T18:09:19.704Z,1.69
2022-11-29T18:11:49.670Z,1.68
2022-11-29T18:14:21.311Z,1.62
2022-11-29T18:17:07.948Z,1.62
2022-11-29T18:19:36.014Z,1.64
2022-11-29T18:22:03.639Z,1.32
2022-11-29T18:24:31.679Z,1.43
2022-11-29T18:26:59.726Z,1.48
2022-11-29T18:29:27.190Z,1.41
2022-11-29T18:31:55.285Z,1.12
2022-11-29T18:34:23.262Z,1.25
2022-11-29T18:36:50.764Z,1.04
2022-11-29T18:39:20.101Z,1.31
2022-11-29T18:41:49.307Z,1.23
2022-11-29T18:44:19.425Z,1.36
2022-11-29T18:46:47.568Z,1.35
2022-11-29T18:49:16.918Z,1.35
2022-11-29T18:51:45.892Z,1.15
2022-11-29T18:54:14.957Z,1.10
2022-11-29T18:56:43.781Z,1.27
2022-11-29T18:59:14.815Z,1.31
2022-11-29T19:01:45.121Z,1.42
2022-11-29T19:04:15.751Z,1.41
2022-11-29T19:06:43.965Z,1.36
2022-11-29T19:09:14.250Z,1.22
2022-11-29T19:11:42.617Z,1.32
2022-11-29T19:14:11.959Z,1.37
2022-11-29T19:16:45.049Z,1.38
2022-11-29T19:19:13.622Z,1.31
2022-11-29T19:21:42.027Z,1.28
2022-11-29T19:24:15.055Z,1.35
2022-11-29T19:26:46.520Z,1.33
2022-11-29T19:29:15.256Z,1.41
2022-11-29T19:31:43.775Z,1.24
2022-11-29T19:34:11.532Z,1.36
2022-11-29T19:36:44.142Z,1.10
2022-11-29T19:39:14.999Z,1.16
2022-11-29T19:41:44.914Z,1.31
2022-11-29T19:44:12.977Z,1.41
2022-11-29T19:46:43.391Z,1.46
2022-11-29T19:49:11.857Z,1.46
2022-11-29T19:51:39.993Z,1.41
2022-11-29T19:54:09.299Z,1.45
2022-11-29T19:56:39.159Z,1.10
2022-11-29T19:59:08.142Z,1.18
2022-11-29T20:01:41.468Z,1.26
2022-11-29T20:04:11.378Z,1.29
2022-11-29T20:06:39.325Z,0.87
2022-11-29T20:09:07.831Z,0.96
2022-11-29T20:11:35.983Z,1.01
2022-11-29T20:14:05.503Z,0.99
2022-11-29T20:16:34.137Z,0.90
2022-11-29T20:19:02.234Z,0.89
2022-11-29T20:21:31.776Z,0.80
2022-11-29T20:24:05.073Z,0.87
2022-11-29T20:26:35.258Z,0.99
2022-11-29T20:29:04.162Z,1.08
2022-11-29T20:31:33.023Z,1.02
2022-11-29T20:34:01.405Z,1.04
2022-11-29T20:37:16.714Z,1.05
2022-11-29T20:39:58.319Z,0.94
2022-11-29T20:42:28.976Z,1.00
2022-11-29T20:45:04.861Z,0.99
2022-11-29T20:47:54.398Z,1.01
2022-11-29T20:50:28.270Z,1.02
2022-11-29T20:53:25.478Z,1.03
2022-11-29T20:55:53.296Z,1.12
2022-11-29T20:58:21.024Z,1.03
2022-11-29T21:00:48.730Z,1.12
2022-11-29T21:03:17.075Z,1.17
2022-11-29T21:05:45.117Z,1.17
2022-11-29T21:08:14.111Z,1.27
2022-11-29T21:10:42.223Z,1.30
2022-11-29T21:13:13.824Z,1.15
2022-11-29T21:15:42.170Z,1.18
2022-11-29T21:18:24.880Z,1.07
2022-11-29T21:21:13.771Z,1.07
2022-11-29T21:24:06.920Z,1.01
2022-11-29T21:26:41.778Z,1.13
2022-11-29T21:29:10.002Z,1.14
2022-11-29T21:31:40.075Z,1.06
2022-11-29T21:34:08.515Z,1.07
2022-11-29T21:36:37.008Z,1.15
2022-11-29T21:39:11.529Z,1.26
2022-11-29T21:41:39.376Z,1.26
2022-11-29T21:44:07.892Z,1.30
2022-11-29T21:46:36.050Z,1.29
2022-11-29T21:49:05.158Z,1.24
2022-11-29T21:51:32.620Z,1.29
2022-11-29T21:54:01.347Z,1.41
2022-11-29T21:56:29.153Z,1.38
2022-11-29T21:58:56.653Z,1.42
2022-11-29T22:01:24.145Z,1.48
2022-11-29T22:03:53.550Z,1.48
2022-11-29T22:06:24.128Z,1.51
2022-11-29T22:08:52.211Z,1.34
2022-11-29T22:11:30.927Z,1.44
2022-11-29T22:14:16.019Z,1.47
2022-11-29T22:16:58.258Z,1.51
2022-11-29T22:19:31.991Z,1.63
2022-11-29T22:22:01.964Z,1.64
2022-11-29T22:24:32.075Z,1.55
2022-11-29T22:26:59.798Z,1.49
2022-11-29T22:29:27.749Z,1.58
2022-11-29T22:31:56.680Z,1.67
2022-11-29T22:34:27.544Z,1.73
2022-11-29T22:36:55.686Z,1.69
2022-11-29T22:39:24.042Z,1.74
2022-11-29T22:41:54.602Z,1.67
2022-11-29T22:44:23.852Z,1.74
2022-11-29T22:46:51.595Z,1.80
2022-11-29T22:49:19.163Z,1.85
2022-11-29T22:51:47.092Z,1.86
2022-11-29T22:54:17.966Z,1.87
2022-11-29T22:56:46.215Z,1.72
2022-11-29T22:59:14.269Z,1.87
2022-11-29T23:01:42.006Z,1.91
2022-11-29T23:04:10.764Z,1.99
2022-11-29T23:06:43.474Z,2.00
2022-11-29T23:09:16.547Z,2.00
2022-11-29T23:11:45.809Z,1.99
2022-11-29T23:14:13.345Z,1.97
2022-11-29T23:16:40.876Z,2.00
2022-11-29T23:19:08.986Z,1.96
2022-11-29T23:21:39.226Z,1.97
2022-11-29T23:24:07.208Z,2.01
2022-11-29T23:26:39.738Z,2.04
2022-11-29T23:29:10.250Z,2.11
2022-11-29T23:31:38.365Z,2.05
2022-11-29T23:34:06.019Z,2.12
2022-11-29T23:36:34.003Z,2.13
2022-11-29T23:39:07.871Z,2.12
2022-11-29T23:41:36.506Z,2.12
2022-11-29T23:44:05.525Z,2.16
2022-11-29T23:46:33.099Z,2.11
2022-11-29T23:49:00.602Z,2.15
2022-11-29T23:51:28.405Z,2.11
2022-11-29T23:53:55.888Z,2.15
2022-11-29T23:56:23.490Z,2.21
2022-11-29T23:58:51.253Z,2.23
